createdAt,value
2023-02-27T00:05:30.029Z,22.8
2023-02-27T00:11:06.861Z,24.4
2023-02-27T00:16:30.401Z,23.4
2023-02-27T00:22:26.013Z,23
2023-02-27T00:28:18.705Z,22.8
2023-02-27T00:34:11.875Z,22.7
2023-02-27T00:40:03.719Z,24.6
2023-02-27T00:45:40.518Z,23.6
2023-02-27T00:51:17.633Z,23.1
2023-02-27T00:56:54.845Z,22.7
2023-02-27T01:02:49.162Z,22.5
2023-02-27T01:08:42.212Z,23.8
2023-02-27T01:14:19.266Z,23.6
2023-02-27T01:19:56.851Z,23
2023-02-27T01:25:49.637Z,22.8
2023-02-27T01:31:43.329Z,22.5
2023-02-27T01:37:35.921Z,24
2023-02-27T01:43:29.055Z,24.1
2023-02-27T01:49:22.430Z,23.2
2023-02-27T01:55:14.230Z,22.9
2023-02-27T02:01:07.760Z,22.6
2023-02-27T02:07:01.264Z,23.5
2023-02-27T02:12:53.465Z,23.9
2023-02-27T02:18:46.805Z,23.1
2023-02-27T02:24:39.713Z,22.5
2023-02-27T02:30:32.725Z,22.4
2023-02-27T02:36:27.053Z,23.5
2023-02-27T02:42:19.414Z,24.1
2023-02-27T02:47:57.275Z,23.1
2023-02-27T02:53:53.595Z,22.9
2023-02-27T02:59:46.427Z,22.8
2023-02-27T03:05:23.090Z,23.8
2023-02-27T03:11:16.372Z,24.6
2023-02-27T03:17:12.137Z,23.7
2023-02-27T03:23:05.358Z,23.1
2023-02-27T03:28:59.688Z,23
2023-02-27T03:34:54.068Z,22.9
2023-02-27T03:40:30.693Z,24.6
2023-02-27T03:46:23.119Z,24.3
2023-02-27T03:52:00.952Z,23.6
2023-02-27T03:57:53.043Z,22.9
2023-02-27T04:03:45.716Z,22.8
2023-02-27T04:09:38.129Z,23.6
2023-02-27T04:15:31.453Z,24.4
2023-02-27T04:21:26.039Z,23.4
2023-02-27T04:27:18.205Z,23.1
2023-02-27T04:33:11.087Z,22.8
2023-02-27T04:39:03.310Z,22.5
2023-02-27T04:44:55.702Z,22.3
2023-02-27T04:50:36.853Z,22.1
2023-02-27T04:56:31.652Z,23.3
2023-02-27T05:02:24.770Z,24.3
2023-02-27T05:08:17.090Z,23.5
2023-02-27T05:14:10.441Z,23.2
2023-02-27T05:20:04.200Z,22.7
2023-02-27T05:25:26.970Z,22.4
2023-02-27T05:31:20.166Z,21.9
2023-02-27T05:37:12.944Z,21.8
2023-02-27T05:43:06.063Z,21.9
2023-02-27T05:48:58.924Z,21.9
2023-02-27T05:54:50.093Z,22.9
2023-02-27T06:00:42.426Z,23.4
2023-02-27T06:06:35.393Z,22.6
2023-02-27T06:12:13.893Z,22.1
2023-02-27T06:18:07.481Z,21.8
2023-02-27T06:23:59.845Z,21.6
2023-02-27T06:29:53.345Z,21.4
2023-02-27T06:35:48.131Z,21.4
2023-02-27T06:41:40.334Z,21.4
2023-02-27T06:47:34.531Z,22.7
2023-02-27T06:53:27.304Z,23.2
2023-02-27T06:59:18.928Z,22.4
2023-02-27T07:05:12.298Z,22.3
2023-02-27T07:12:24.294Z,22
2023-02-27T07:18:20.383Z,21.7
2023-02-27T07:24:12.708Z,21.6
2023-02-27T07:30:06.132Z,21.5
2023-02-27T07:35:58.857Z,21.8
2023-02-27T07:42:03.102Z,23.1
2023-02-27T07:47:40.741Z,23.1
2023-02-27T07:53:33.980Z,22.5
2023-02-27T07:59:27.596Z,22.1
2023-02-27T08:05:20.857Z,21.8
2023-02-27T08:11:14.311Z,22.8
2023-02-27T08:17:37.168Z,23
2023-02-27T08:23:14.880Z,22.4
2023-02-27T08:29:08.168Z,22.2
2023-02-27T08:35:15.335Z,22.3
2023-02-27T08:41:11.366Z,23
2023-02-27T08:47:04.708Z,23.5
2023-02-27T08:52:42.872Z,22.7
2023-02-27T08:58:36.540Z,22.4
2023-02-27T09:04:31.029Z,22.3
2023-02-27T09:10:25.068Z,22.9
2023-02-27T09:16:03.132Z,23.6
2023-02-27T09:21:56.892Z,22.9
2023-02-27T09:28:08.355Z,22.5
2023-02-27T09:34:02.909Z,22.3
2023-02-27T09:39:55.782Z,22.7
2023-02-27T09:46:02.447Z,23.7
2023-02-27T09:51:56.298Z,23
2023-02-27T09:57:49.991Z,22.6
2023-02-27T10:03:43.416Z,22.4
2023-02-27T10:09:36.068Z,23
2023-02-27T10:15:28.211Z,23.6
2023-02-27T10:21:35.298Z,22.9
2023-02-27T10:27:25.561Z,22.6
2023-02-27T10:33:16.576Z,22.4
2023-02-27T10:39:17.676Z,23.4
2023-02-27T10:45:10.908Z,23.4
2023-02-27T10:51:06.710Z,22.8
2023-02-27T10:56:44.461Z,22.6
2023-02-27T11:02:21.798Z,22.4
2023-02-27T11:07:59.807Z,23.5
2023-02-27T11:13:54.303Z,23.6
2023-02-27T11:19:31.214Z,22.9
2023-02-27T11:25:24.171Z,22.7
2023-02-27T11:31:16.200Z,22.5
2023-02-27T11:37:09.723Z,23.4
2023-02-27T11:42:33.958Z,22.2
2023-02-27T11:49:53.477Z,21.4
2023-02-27T11:55:45.109Z,20.8
2023-02-27T12:01:38.285Z,20.6
2023-02-27T12:13:23.957Z,22.4
2023-02-27T12:19:03.020Z,22.6
2023-02-27T12:24:40.740Z,22.4
2023-02-27T12:30:34.033Z,22.3
2023-02-27T12:36:28.888Z,22.1
2023-02-27T12:42:21.605Z,21.9
2023-02-27T12:47:59.321Z,21.8
2023-02-27T12:53:52.651Z,21.9
2023-02-27T12:59:46.858Z,22.6
2023-02-27T13:05:24.858Z,22.2
2023-02-27T13:11:17.662Z,22
2023-02-27T13:17:10.887Z,21.9
2023-02-27T13:22:49.390Z,21.8
2023-02-27T13:28:42.406Z,22.8
2023-02-27T13:34:54.866Z,22.5
2023-02-27T13:40:48.042Z,22.1
2023-02-27T13:46:53.576Z,21.8
2023-02-27T13:52:39.615Z,21.6
2023-02-27T13:58:45.797Z,21.6
2023-02-27T14:04:22.046Z,21.9
2023-02-27T14:09:58.040Z,22.9
2023-02-27T14:15:47.923Z,22.4
2023-02-27T14:21:53.265Z,22.2
2023-02-27T14:28:03.539Z,21.9
2023-02-27T14:34:12.615Z,21.8
2023-02-27T14:40:06.428Z,21.7
2023-02-27T14:45:52.900Z,21.8
2023-02-27T14:51:47.052Z,22.8
2023-02-27T14:57:40.758Z,22.3
2023-02-27T15:03:44.132Z,22
2023-02-27T15:09:37.133Z,21.9
2023-02-27T15:15:39.040Z,21.8
2023-02-27T15:21:39.922Z,21.8
2023-02-27T15:27:35.077Z,21.6
2023-02-27T15:33:29.101Z,23
2023-02-27T15:39:08.694Z,22.6
2023-02-27T15:45:01.703Z,22.3
2023-02-27T15:50:54.401Z,22.1
2023-02-27T15:56:31.485Z,21.8
2023-02-27T16:02:36.089Z,21.8
2023-02-27T16:08:16.938Z,21.6
2023-02-27T16:14:09.736Z,22.2
2023-02-27T16:20:04.030Z,22.8
2023-02-27T16:25:56.856Z,22.3
2023-02-27T16:37:46.630Z,20.9
2023-02-27T16:43:25.166Z,20.6
2023-02-27T16:49:34.448Z,20.4
2023-02-27T16:55:26.667Z,20.4
2023-02-27T17:01:26.799Z,21.8
2023-02-27T17:07:10.797Z,21.2
2023-02-27T17:12:47.391Z,20.8
2023-02-27T17:18:42.509Z,21.4
2023-02-27T17:24:36.486Z,21.5
2023-02-27T17:30:27.708Z,21.5
2023-02-27T17:36:23.035Z,21.8
2023-02-27T17:42:00.195Z,22.8
2023-02-27T17:47:54.100Z,22.2
2023-02-27T17:53:47.118Z,22
2023-02-27T17:59:39.447Z,21.9
2023-02-27T18:05:31.959Z,21.7
2023-02-27T18:11:24.695Z,21.8
2023-02-27T18:17:19.456Z,21.9
2023-02-27T18:23:12.547Z,22.8
2023-02-27T18:29:14.461Z,22.7
2023-02-27T18:35:07.103Z,22.4
2023-02-27T18:41:00.424Z,21.9
2023-02-27T18:46:54.311Z,21.6
2023-02-27T18:52:48.801Z,21.4
2023-02-27T18:58:41.104Z,21.3
2023-02-27T19:04:37.638Z,21.9
2023-02-27T19:10:30.232Z,22.1
2023-02-27T19:16:22.215Z,21.6
2023-02-27T19:22:15.149Z,21.5
2023-02-27T19:28:08.423Z,21.4
2023-02-27T19:33:45.812Z,21.2
2023-02-27T19:45:17.253Z,22.1
2023-02-27T19:51:11.003Z,22.2
2023-02-27T19:57:04.318Z,21.6
2023-02-27T20:02:58.140Z,21.4
2023-02-27T20:08:50.499Z,21.1
2023-02-27T20:14:43.410Z,20.9
2023-02-27T20:20:36.966Z,20.9
2023-02-27T20:26:29.087Z,21.9
2023-02-27T20:32:23.410Z,21.9
2023-02-27T20:38:16.761Z,21.5
2023-02-27T20:44:08.615Z,21.3
2023-02-27T20:50:01.927Z,21.2
2023-02-27T20:55:54.901Z,21
2023-02-27T21:01:48.045Z,20.9
2023-02-27T21:07:52.105Z,20.8
2023-02-27T21:13:45.025Z,20.8
2023-02-27T21:19:37.172Z,20.8
2023-02-27T21:25:30.195Z,21.8
2023-02-27T21:31:23.094Z,22.1
2023-02-27T21:37:18.045Z,21.6
2023-02-27T21:43:10.801Z,21.6
2023-02-27T21:49:03.049Z,22.2
2023-02-27T21:55:12.900Z,22.9
2023-02-27T22:01:05.835Z,22.6
2023-02-27T22:06:58.458Z,22.5
2023-02-27T22:12:52.213Z,22.4
2023-02-27T22:18:44.913Z,23.8
2023-02-27T22:24:37.289Z,23.1
2023-02-27T22:30:31.629Z,22.6
2023-02-27T22:36:25.495Z,22.3
2023-02-27T22:42:18.221Z,23.3
2023-02-27T22:48:10.201Z,23.6
2023-02-27T22:53:48.190Z,22.8
2023-02-27T22:59:42.752Z,22.5
2023-02-27T23:05:35.513Z,22.7
2023-02-27T23:11:29.396Z,23.8
2023-02-27T23:17:22.275Z,23.1
2023-02-27T23:23:28.046Z,22.6
2023-02-27T23:29:36.611Z,22.4
2023-02-27T23:35:22.638Z,23.3
2023-02-27T23:41:15.178Z,23.4
2023-02-27T23:47:07.706Z,22.8
2023-02-27T23:52:59.687Z,22.3
2023-02-27T23:58:37.055Z,22.3
